createdAt,value
2023-03-28T00:00:35.259Z,8.43
2023-03-28T00:03:04.946Z,8.25
2023-03-28T00:05:34.662Z,9.00
2023-03-28T00:08:04.786Z,8.23
2023-03-28T00:10:34.561Z,8.57
2023-03-28T00:13:04.254Z,9.35
2023-03-28T00:15:34.039Z,9.40
2023-03-28T00:18:03.758Z,8.25
2023-03-28T00:20:33.823Z,8.25
2023-03-28T00:23:05.561Z,7.95
2023-03-28T00:25:42.077Z,8.43
2023-03-28T00:28:24.143Z,8.15
2023-03-28T00:30:57.048Z,8.70
2023-03-28T00:33:26.766Z,8.27
2023-03-28T00:35:58.444Z,8.73
2023-03-28T00:38:29.212Z,8.75
2023-03-28T00:41:22.897Z,8.52
2023-03-28T00:44:16.719Z,9.35
2023-03-28T00:47:07.439Z,8.40
2023-03-28T00:49:55.117Z,9.70
2023-03-28T00:52:34.148Z,9.40
2023-03-28T00:55:11.689Z,8.70
2023-03-28T00:58:33.721Z,8.80
2023-03-28T01:01:21.375Z,9.93
2023-03-28T01:04:18.836Z,8.93
2023-03-28T01:07:39.112Z,9.52
2023-03-28T01:10:40.620Z,9.20
2023-03-28T01:13:26.265Z,9.07
2023-03-28T01:16:06.715Z,8.45
2023-03-28T01:18:45.854Z,8.85
2023-03-28T01:22:01.431Z,9.00
2023-03-28T01:25:21.233Z,7.70
2023-03-28T01:28:19.727Z,8.02
2023-03-28T01:31:39.794Z,8.23
2023-03-28T01:34:20.287Z,7.57
2023-03-28T01:37:26.209Z,7.78
2023-03-28T01:40:02.697Z,7.17
2023-03-28T01:42:50.390Z,7.00
2023-03-28T01:45:36.406Z,8.27
2023-03-28T01:48:12.856Z,7.43
2023-03-28T01:50:59.388Z,7.78
2023-03-28T01:53:44.659Z,8.52
2023-03-28T01:56:28.202Z,7.82
2023-03-28T01:59:01.244Z,6.82
2023-03-28T02:01:50.987Z,7.10
2023-03-28T02:04:22.144Z,7.47
2023-03-28T02:06:52.175Z,7.88
2023-03-28T02:09:24.754Z,7.13
2023-03-28T02:11:58.351Z,6.80
2023-03-28T02:14:29.854Z,7.00
2023-03-28T02:17:02.151Z,7.07
2023-03-28T02:19:32.759Z,7.07
2023-03-28T02:22:17.890Z,6.90
2023-03-28T02:24:52.086Z,6.73
2023-03-28T02:27:24.080Z,6.93
2023-03-28T02:29:55.927Z,6.93
2023-03-28T02:32:25.778Z,7.18
2023-03-28T02:34:56.160Z,6.97
2023-03-28T02:37:50.569Z,6.38
2023-03-28T02:40:26.071Z,6.35
2023-03-28T02:43:25.859Z,6.45
2023-03-28T02:45:59.419Z,6.10
2023-03-28T02:49:16.540Z,6.78
2023-03-28T02:51:47.962Z,7.47
2023-03-28T02:54:27.960Z,6.43
2023-03-28T02:57:10.010Z,6.75
2023-03-28T02:59:50.211Z,6.88
2023-03-28T03:02:20.709Z,6.38
2023-03-28T03:05:02.142Z,5.82
2023-03-28T03:07:32.524Z,6.68
2023-03-28T03:10:02.349Z,6.32
2023-03-28T03:12:32.237Z,6.18
2023-03-28T03:15:02.676Z,6.00
2023-03-28T03:17:32.611Z,6.15
2023-03-28T03:20:08.646Z,6.40
2023-03-28T03:22:38.636Z,6.70
2023-03-28T03:25:13.796Z,6.20
2023-03-28T03:27:44.110Z,6.25
2023-03-28T03:30:16.598Z,6.38
2023-03-28T03:32:46.713Z,6.57
2023-03-28T03:35:16.516Z,6.22
2023-03-28T03:37:49.216Z,7.10
2023-03-28T03:40:19.841Z,6.63
2023-03-28T03:42:49.665Z,6.97
2023-03-28T03:45:19.486Z,6.25
2023-03-28T03:47:49.200Z,7.03
2023-03-28T03:50:22.252Z,6.75
2023-03-28T03:52:52.041Z,6.78
2023-03-28T03:55:22.363Z,6.28
2023-03-28T03:57:52.100Z,6.20
2023-03-28T04:00:22.015Z,6.28
2023-03-28T04:02:51.810Z,6.40
2023-03-28T04:05:21.565Z,6.30
2023-03-28T04:07:51.261Z,6.05
2023-03-28T04:10:20.967Z,6.68
2023-03-28T04:12:51.069Z,6.00
2023-03-28T04:15:20.864Z,6.18
2023-03-28T04:17:51.680Z,6.20
2023-03-28T04:20:22.524Z,5.88
2023-03-28T04:22:52.250Z,6.03
2023-03-28T04:25:22.192Z,6.70
2023-03-28T04:27:51.906Z,6.30
2023-03-28T04:30:21.679Z,6.25
2023-03-28T04:32:52.069Z,5.63
2023-03-28T04:35:25.832Z,6.13
2023-03-28T04:37:59.879Z,6.10
2023-03-28T04:40:29.681Z,5.95
2023-03-28T04:42:59.355Z,5.68
2023-03-28T04:45:29.118Z,5.78
2023-03-28T04:47:58.831Z,6.75
2023-03-28T04:50:28.510Z,6.00
2023-03-28T04:52:58.157Z,5.75
2023-03-28T04:55:27.806Z,6.35
2023-03-28T04:57:57.701Z,6.07
2023-03-28T05:00:27.673Z,6.25
2023-03-28T05:03:03.398Z,5.75
2023-03-28T05:05:33.832Z,6.28
2023-03-28T05:08:04.766Z,6.00
2023-03-28T05:10:34.468Z,5.90
2023-03-28T05:13:04.267Z,5.90
2023-03-28T05:15:34.051Z,6.00
2023-03-28T05:18:03.798Z,6.80
2023-03-28T05:20:34.081Z,6.57
2023-03-28T05:23:04.231Z,6.45
2023-03-28T05:25:34.035Z,6.07
2023-03-28T05:28:06.519Z,6.32
2023-03-28T05:30:36.462Z,5.90
2023-03-28T05:33:06.203Z,6.80
2023-03-28T05:35:35.880Z,6.43
2023-03-28T05:38:06.445Z,7.13
2023-03-28T05:40:36.095Z,6.82
2023-03-28T05:43:06.216Z,6.25
2023-03-28T05:45:35.958Z,6.57
2023-03-28T05:48:05.801Z,6.90
2023-03-28T05:50:35.612Z,6.85
2023-03-28T05:53:05.261Z,7.43
2023-03-28T05:55:35.878Z,6.88
2023-03-28T05:58:07.905Z,6.70
2023-03-28T06:00:37.565Z,6.30
2023-03-28T06:03:09.056Z,6.47
2023-03-28T06:05:46.481Z,6.90
2023-03-28T06:08:16.196Z,7.25
2023-03-28T06:10:46.001Z,6.90
2023-03-28T06:13:15.629Z,7.70
2023-03-28T06:15:45.548Z,10.07
2023-03-28T06:18:15.284Z,9.02
2023-03-28T06:20:45.117Z,9.02
2023-03-28T06:23:14.744Z,8.63
2023-03-28T06:25:44.508Z,8.55
2023-03-28T06:28:14.180Z,10.13
2023-03-28T06:30:43.898Z,8.73
2023-03-28T06:33:13.582Z,10.43
2023-03-28T06:35:43.388Z,9.20
2023-03-28T06:38:13.292Z,8.90
2023-03-28T06:40:43.106Z,9.50
2023-03-28T06:43:12.835Z,9.93
2023-03-28T06:45:43.251Z,9.35
2023-03-28T06:48:12.975Z,8.55
2023-03-28T06:50:42.684Z,9.15
2023-03-28T06:53:12.353Z,9.43
2023-03-28T06:55:42.813Z,9.70
2023-03-28T06:58:12.672Z,9.73
2023-03-28T07:00:42.832Z,9.32
2023-03-28T07:03:12.654Z,10.50
2023-03-28T07:05:43.216Z,9.57
2023-03-28T07:08:14.262Z,10.07
2023-03-28T07:10:44.242Z,10.23
2023-03-28T07:13:13.927Z,11.93
2023-03-28T07:15:43.639Z,10.70
2023-03-28T07:18:13.344Z,11.13
2023-03-28T07:21:01.579Z,10.88
2023-03-28T07:23:33.453Z,10.20
2023-03-28T07:26:03.126Z,10.10
2023-03-28T07:28:32.809Z,11.30
2023-03-28T07:31:06.713Z,10.90
2023-03-28T07:33:38.014Z,10.25
2023-03-28T07:36:18.078Z,10.68
2023-03-28T07:38:49.285Z,9.80
2023-03-28T07:41:19.505Z,9.93
2023-03-28T07:43:49.145Z,11.07
2023-03-28T07:46:18.868Z,11.05
2023-03-28T07:48:48.495Z,11.20
2023-03-28T07:51:18.172Z,10.25
2023-03-28T07:53:47.841Z,10.55
2023-03-28T07:56:17.476Z,11.45
2023-03-28T07:58:47.650Z,11.23
2023-03-28T08:01:20.259Z,11.13
2023-03-28T08:03:50.053Z,11.45
2023-03-28T08:06:31.626Z,12.25
2023-03-28T08:09:02.308Z,12.00
2023-03-28T08:11:32.105Z,11.52
2023-03-28T08:14:01.755Z,12.50
2023-03-28T08:16:31.906Z,13.07
2023-03-28T08:19:10.554Z,11.82
2023-03-28T08:21:40.722Z,11.73
2023-03-28T08:24:19.639Z,12.13
2023-03-28T08:26:52.226Z,11.80
2023-03-28T08:29:24.790Z,12.30
2023-03-28T08:31:54.479Z,12.13
2023-03-28T08:34:24.150Z,12.45
2023-03-28T08:36:54.529Z,12.32
2023-03-28T08:39:24.863Z,12.65
2023-03-28T08:42:00.206Z,11.52
2023-03-28T08:44:51.062Z,12.20
2023-03-28T08:47:38.869Z,12.00
2023-03-28T08:50:19.818Z,12.55
2023-03-28T08:52:49.601Z,11.85
2023-03-28T08:55:19.280Z,12.27
2023-03-28T08:57:48.944Z,12.13
2023-03-28T09:00:24.049Z,13.40
2023-03-28T09:02:53.872Z,11.82
2023-03-28T09:05:37.253Z,11.77
2023-03-28T09:08:20.575Z,12.63
2023-03-28T09:11:31.206Z,12.13
2023-03-28T09:14:23.830Z,12.02
2023-03-28T09:17:15.053Z,12.73
2023-03-28T09:20:14.910Z,12.18
2023-03-28T09:23:09.856Z,12.07
2023-03-28T09:25:44.094Z,12.43
2023-03-28T09:28:35.083Z,11.65
2023-03-28T09:31:04.800Z,12.27
2023-03-28T09:33:42.209Z,12.18
2023-03-28T09:36:48.234Z,12.10
2023-03-28T09:39:35.507Z,12.18
2023-03-28T09:42:11.674Z,12.02
2023-03-28T09:44:55.187Z,12.60
2023-03-28T09:47:24.955Z,12.80
2023-03-28T09:50:05.567Z,12.23
2023-03-28T09:52:39.743Z,12.57
2023-03-28T09:55:18.903Z,13.25
2023-03-28T09:58:10.595Z,12.35
2023-03-28T10:00:52.794Z,12.35
2023-03-28T10:03:36.562Z,11.63
2023-03-28T10:06:33.249Z,11.73
2023-03-28T10:09:23.475Z,12.05
2023-03-28T10:12:01.297Z,11.45
2023-03-28T10:14:36.296Z,11.52
2023-03-28T10:17:18.311Z,11.10
2023-03-28T10:19:48.744Z,11.52
2023-03-28T10:22:25.302Z,11.57
2023-03-28T10:24:54.954Z,11.40
2023-03-28T10:27:26.712Z,11.43
2023-03-28T10:29:58.357Z,11.57
2023-03-28T10:32:31.800Z,11.05
2023-03-28T10:35:26.640Z,11.98
2023-03-28T10:38:00.404Z,11.15
2023-03-28T10:40:33.899Z,11.38
2023-03-28T10:43:12.989Z,11.15
2023-03-28T10:45:52.575Z,11.23
2023-03-28T10:48:31.517Z,11.65
2023-03-28T10:51:09.842Z,10.60
2023-03-28T10:54:17.405Z,10.88
2023-03-28T10:57:01.311Z,11.55
2023-03-28T10:59:52.103Z,11.10
2023-03-28T11:02:44.619Z,10.93
2023-03-28T11:05:41.736Z,11.13
2023-03-28T11:08:38.031Z,10.55
2023-03-28T11:11:25.525Z,11.63
2023-03-28T11:14:02.848Z,11.63
2023-03-28T11:16:42.499Z,10.52
2023-03-28T11:19:56.065Z,10.88
2023-03-28T11:23:04.600Z,11.38
2023-03-28T11:25:45.515Z,11.85
2023-03-28T11:28:32.878Z,10.75
2023-03-28T11:31:17.069Z,11.38
2023-03-28T11:34:06.657Z,11.20
2023-03-28T11:36:58.549Z,11.38
2023-03-28T11:39:40.012Z,12.70
2023-03-28T11:42:26.032Z,11.75
2023-03-28T11:48:40.030Z,11.43
2023-03-28T11:51:30.797Z,11.65
2023-03-28T11:54:50.227Z,11.45
2023-03-28T11:57:41.315Z,11.57
2023-03-28T12:00:34.222Z,12.18
2023-03-28T12:03:20.344Z,11.90
2023-03-28T12:06:13.612Z,11.93
2023-03-28T12:08:50.683Z,12.05
2023-03-28T12:11:43.543Z,12.52
2023-03-28T12:14:23.217Z,11.73
2023-03-28T12:17:03.857Z,11.80
2023-03-28T12:19:48.677Z,11.80
2023-03-28T12:22:37.000Z,11.70
2023-03-28T12:25:39.566Z,11.45
2023-03-28T12:28:37.331Z,11.23
2023-03-28T12:31:23.629Z,11.38
2023-03-28T12:34:00.160Z,12.00
2023-03-28T12:37:06.484Z,11.43
2023-03-28T12:40:14.510Z,11.85
2023-03-28T12:42:52.395Z,11.52
2023-03-28T12:45:44.514Z,11.65
2023-03-28T12:48:46.751Z,11.07
2023-03-28T12:51:35.856Z,11.18
2023-03-28T12:54:41.863Z,11.18
2023-03-28T12:57:34.291Z,10.30
2023-03-28T13:00:30.719Z,10.55
2023-03-28T13:03:36.360Z,10.40
2023-03-28T13:06:26.476Z,10.55
2023-03-28T13:09:25.443Z,10.90
2023-03-28T13:12:31.819Z,10.43
2023-03-28T13:15:19.713Z,10.23
2023-03-28T13:18:34.383Z,10.38
2023-03-28T13:21:10.682Z,10.15
2023-03-28T13:23:57.502Z,9.98
2023-03-28T13:27:06.099Z,10.80
2023-03-28T13:30:12.298Z,10.52
2023-03-28T13:32:54.744Z,10.25
2023-03-28T13:36:22.292Z,10.30
2023-03-28T13:39:12.021Z,9.13
2023-03-28T13:41:53.279Z,9.45
2023-03-28T13:44:49.194Z,10.13
2023-03-28T13:47:38.837Z,9.52
2023-03-28T13:50:36.278Z,9.57
2023-03-28T13:53:16.445Z,9.50
2023-03-28T13:55:56.353Z,8.45
2023-03-28T13:58:30.836Z,9.55
2023-03-28T14:01:26.060Z,8.93
2023-03-28T14:04:05.644Z,9.20
2023-03-28T14:06:45.443Z,9.63
2023-03-28T14:09:34.884Z,9.40
2023-03-28T14:12:16.974Z,9.95
2023-03-28T14:14:56.685Z,9.80
2023-03-28T14:17:40.487Z,9.38
2023-03-28T14:20:25.295Z,9.32
2023-03-28T14:23:07.890Z,9.20
2023-03-28T14:25:42.809Z,10.27
2023-03-28T14:28:20.098Z,9.45
2023-03-28T14:31:11.883Z,9.40
2023-03-28T14:33:53.735Z,9.35
2023-03-28T14:36:32.617Z,9.00
2023-03-28T14:39:24.649Z,8.98
2023-03-28T14:42:03.246Z,9.55
2023-03-28T14:44:47.845Z,9.02
2023-03-28T14:47:36.840Z,9.20
2023-03-28T14:50:19.876Z,9.55
2023-03-28T14:52:54.940Z,10.00
2023-03-28T14:55:30.470Z,9.45
2023-03-28T15:01:06.247Z,9.18
2023-03-28T15:03:56.003Z,9.45
2023-03-28T15:06:33.980Z,9.50
2023-03-28T15:09:23.058Z,9.32
2023-03-28T15:11:57.739Z,9.63
2023-03-28T15:14:39.781Z,9.63
2023-03-28T15:17:25.566Z,9.88
2023-03-28T15:20:01.447Z,9.65
2023-03-28T15:22:38.493Z,9.60
2023-03-28T15:25:21.860Z,9.40
2023-03-28T15:28:08.325Z,9.68
2023-03-28T15:30:52.398Z,10.93
2023-03-28T15:33:37.700Z,9.77
2023-03-28T15:36:35.045Z,9.23
2023-03-28T15:39:34.716Z,10.55
2023-03-28T15:42:11.826Z,10.05
2023-03-28T15:44:56.338Z,9.15
2023-03-28T15:47:46.804Z,9.15
2023-03-28T15:50:50.512Z,9.82
2023-03-28T15:53:33.027Z,10.07
2023-03-28T15:56:40.290Z,9.82
2023-03-28T15:59:23.399Z,9.70
2023-03-28T16:02:36.025Z,9.25
2023-03-28T16:05:16.095Z,9.80
2023-03-28T16:07:52.220Z,9.15
2023-03-28T16:10:32.430Z,9.35
2023-03-28T16:13:15.557Z,9.70
2023-03-28T16:16:00.792Z,9.75
2023-03-28T16:18:35.927Z,9.57
2023-03-28T16:21:19.680Z,9.98
2023-03-28T16:23:54.284Z,9.77
2023-03-28T16:26:33.043Z,8.98
2023-03-28T16:29:17.116Z,9.30
2023-03-28T16:31:51.992Z,9.93
2023-03-28T16:34:27.129Z,9.63
2023-03-28T16:37:10.955Z,10.02
2023-03-28T16:39:49.053Z,9.85
2023-03-28T16:42:31.840Z,9.73
2023-03-28T16:45:09.003Z,10.30
2023-03-28T16:47:47.591Z,9.35
2023-03-28T16:50:26.408Z,10.07
2023-03-28T16:53:05.128Z,9.48
2023-03-28T16:55:39.983Z,9.57
2023-03-28T16:58:18.699Z,9.65
2023-03-28T17:00:57.750Z,10.20
2023-03-28T17:03:46.157Z,10.25
2023-03-28T17:06:26.249Z,9.75
2023-03-28T17:09:03.828Z,9.63
2023-03-28T17:11:41.571Z,10.23
2023-03-28T17:14:15.377Z,10.23
2023-03-28T17:16:51.205Z,10.30
2023-03-28T17:19:25.722Z,10.18
2023-03-28T17:22:01.377Z,9.77
2023-03-28T17:24:35.557Z,10.07
2023-03-28T17:27:13.539Z,10.20
2023-03-28T17:29:51.290Z,10.93
2023-03-28T17:32:28.592Z,10.38
2023-03-28T17:35:10.750Z,10.80
2023-03-28T17:38:28.901Z,10.88
2023-03-28T17:41:27.161Z,10.60
2023-03-28T17:44:01.430Z,10.35
2023-03-28T17:46:37.355Z,10.52
2023-03-28T17:49:13.262Z,11.13
2023-03-28T17:51:50.115Z,10.98
2023-03-28T17:54:21.985Z,11.55
2023-03-28T17:56:54.851Z,11.27
2023-03-28T17:59:25.815Z,10.82
2023-03-28T18:01:56.285Z,10.93
2023-03-28T18:04:25.987Z,10.85
2023-03-28T18:06:55.979Z,11.25
2023-03-28T18:09:25.924Z,10.70
2023-03-28T18:11:55.555Z,10.77
2023-03-28T18:14:25.176Z,10.73
2023-03-28T18:16:56.793Z,10.85
2023-03-28T18:19:26.463Z,10.13
2023-03-28T18:21:56.299Z,10.75
2023-03-28T18:24:25.896Z,10.68
2023-03-28T18:26:55.735Z,11.10
2023-03-28T18:29:25.394Z,11.95
2023-03-28T18:31:55.147Z,10.65
2023-03-28T18:34:24.860Z,11.73
2023-03-28T18:36:57.060Z,11.60
2023-03-28T18:39:27.413Z,11.40
2023-03-28T18:41:57.160Z,10.60
2023-03-28T18:44:26.818Z,10.85
2023-03-28T18:46:56.933Z,9.98
2023-03-28T18:49:26.754Z,10.70
2023-03-28T18:51:56.798Z,11.10
2023-03-28T18:54:26.506Z,12.88
2023-03-28T18:56:56.137Z,10.82
2023-03-28T18:59:25.911Z,11.98
2023-03-28T19:01:59.923Z,11.52
2023-03-28T19:04:30.920Z,10.88
2023-03-28T19:07:00.584Z,11.43
2023-03-28T19:09:30.303Z,12.20
2023-03-28T19:12:00.130Z,10.90
2023-03-28T19:14:29.934Z,12.65
2023-03-28T19:16:59.674Z,12.15
2023-03-28T19:19:29.571Z,12.50
2023-03-28T19:21:59.194Z,11.38
2023-03-28T19:24:28.963Z,11.23
2023-03-28T19:26:59.474Z,11.45
2023-03-28T19:29:30.095Z,11.63
2023-03-28T19:31:59.779Z,11.70
2023-03-28T19:34:30.427Z,10.98
2023-03-28T19:37:00.217Z,12.07
2023-03-28T19:39:29.916Z,12.15
2023-03-28T19:41:59.656Z,12.55
2023-03-28T19:45:12.059Z,11.35
2023-03-28T19:48:01.613Z,12.20
2023-03-28T19:50:35.081Z,11.77
2023-03-28T19:53:05.077Z,11.70
2023-03-28T19:55:34.976Z,11.77
2023-03-28T19:58:06.536Z,12.30
2023-03-28T20:00:36.299Z,12.27
2023-03-28T20:03:06.065Z,13.05
2023-03-28T20:05:35.860Z,12.55
2023-03-28T20:08:05.464Z,12.70
2023-03-28T20:10:35.072Z,12.48
2023-03-28T20:13:04.679Z,12.55
2023-03-28T20:15:35.190Z,12.55
2023-03-28T20:18:05.293Z,12.38
2023-03-28T20:20:34.933Z,12.73
2023-03-28T20:23:05.599Z,13.30
2023-03-28T20:25:35.772Z,13.30
2023-03-28T20:28:05.878Z,13.52
2023-03-28T20:30:35.507Z,13.95
2023-03-28T20:33:05.714Z,14.13
2023-03-28T20:35:35.631Z,14.45
2023-03-28T20:38:05.390Z,13.38
2023-03-28T20:40:35.031Z,14.95
2023-03-28T20:43:04.713Z,14.50
2023-03-28T20:45:35.472Z,14.10
2023-03-28T20:48:07.784Z,14.38
2023-03-28T20:50:39.075Z,14.80
2023-03-28T20:53:09.484Z,14.80
2023-03-28T20:55:39.356Z,15.07
2023-03-28T20:58:10.352Z,14.90
2023-03-28T21:00:41.376Z,15.00
2023-03-28T21:03:12.832Z,16.23
2023-03-28T21:05:46.232Z,15.32
2023-03-28T21:08:16.165Z,13.55
2023-03-28T21:10:45.808Z,13.50
2023-03-28T21:13:15.486Z,11.95
2023-03-28T21:15:45.357Z,11.35
2023-03-28T21:18:15.581Z,10.57
2023-03-28T21:20:46.255Z,9.80
2023-03-28T21:23:16.059Z,9.57
2023-03-28T21:25:46.906Z,9.27
2023-03-28T21:28:17.748Z,9.45
2023-03-28T21:31:01.298Z,10.10
2023-03-28T21:33:31.625Z,10.77
2023-03-28T21:36:01.482Z,9.63
2023-03-28T21:38:31.113Z,10.45
2023-03-28T21:41:01.078Z,11.10
2023-03-28T21:43:31.031Z,11.60
2023-03-28T21:46:00.667Z,12.80
2023-03-28T21:48:30.958Z,13.70
2023-03-28T21:51:01.369Z,13.77
2023-03-28T21:53:33.150Z,13.45
2023-03-28T21:56:02.760Z,14.38
2023-03-28T21:58:34.218Z,13.88
2023-03-28T22:01:04.607Z,14.75
2023-03-28T22:03:37.332Z,14.57
2023-03-28T22:06:07.337Z,15.25
2023-03-28T22:08:37.095Z,13.90
2023-03-28T22:11:16.057Z,15.05
2023-03-28T22:13:46.398Z,15.75
2023-03-28T22:16:16.939Z,15.13
2023-03-28T22:18:51.162Z,14.98
2023-03-28T22:21:20.785Z,16.05
2023-03-28T22:23:50.414Z,14.73
2023-03-28T22:26:20.130Z,15.68
2023-03-28T22:28:50.759Z,15.60
2023-03-28T22:31:20.494Z,15.98
2023-03-28T22:33:50.245Z,15.50
2023-03-28T22:36:20.054Z,16.33
2023-03-28T22:38:49.792Z,16.60
2023-03-28T22:41:21.896Z,15.88
2023-03-28T22:43:51.768Z,15.20
2023-03-28T22:46:22.785Z,15.05
2023-03-28T22:48:55.744Z,16.13
2023-03-28T22:51:26.700Z,16.05
2023-03-28T22:54:00.592Z,15.80
2023-03-28T22:56:30.463Z,15.40
2023-03-28T22:59:02.612Z,15.32
2023-03-28T23:01:32.425Z,16.13
2023-03-28T23:04:02.161Z,15.43
2023-03-28T23:06:33.113Z,15.15
2023-03-28T23:09:02.855Z,15.57
2023-03-28T23:11:32.590Z,16.05
2023-03-28T23:14:05.351Z,15.52
2023-03-28T23:16:35.212Z,16.77
2023-03-28T23:19:05.390Z,16.27
2023-03-28T23:21:37.113Z,16.08
2023-03-28T23:24:07.276Z,17.17
2023-03-28T23:26:37.264Z,16.27
2023-03-28T23:29:07.166Z,16.90
2023-03-28T23:31:39.585Z,15.88
2023-03-28T23:34:09.351Z,16.80
2023-03-28T23:36:42.747Z,15.43
2023-03-28T23:39:12.636Z,16.35
2023-03-28T23:41:43.025Z,15.70
2023-03-28T23:44:13.183Z,16.27
2023-03-28T23:46:42.906Z,15.88
2023-03-28T23:49:15.681Z,16.63
2023-03-28T23:51:45.703Z,16.13
2023-03-28T23:54:17.202Z,16.77
2023-03-28T23:56:48.319Z,17.17
2023-03-28T23:59:20.727Z,17.23
